sensor_id;sensor_type;location;lat;lon;timestamp;P1;durP1;ratioP1;P2;durP2;ratioP2
5876;SDS011;2964;42.144;24.730;2022-08-19T00:01:11;10.13;;;8.13;;
5876;SDS011;2964;42.144;24.730;2022-08-19T00:03:38;10.10;;;8.25;;
5876;SDS011;2964;42.144;24.730;2022-08-19T00:06:05;8.52;;;7.70;;
5876;SDS011;2964;42.144;24.730;2022-08-19T00:08:32;9.85;;;7.40;;
5876;SDS011;2964;42.144;24.730;2022-08-19T00:10:59;8.52;;;7.85;;
5876;SDS011;2964;42.144;24.730;2022-08-19T00:13:27;8.85;;;7.97;;
5876;SDS011;2964;42.144;24.730;2022-08-19T00:15:54;8.63;;;7.90;;
5876;SDS011;2964;42.144;24.730;2022-08-19T00:18:20;8.50;;;7.68;;
5876;SDS011;2964;42.144;24.730;2022-08-19T00:20:47;8.32;;;7.82;;
5876;SDS011;2964;42.144;24.730;2022-08-19T00:23:14;9.18;;;8.15;;
5876;SDS011;2964;42.144;24.730;2022-08-19T00:25:41;7.65;;;6.95;;
5876;SDS011;2964;42.144;24.730;2022-08-19T00:28:08;9.15;;;8.38;;
5876;SDS011;2964;42.144;24.730;2022-08-19T00:30:36;12.18;;;6.95;;
5876;SDS011;2964;42.144;24.730;2022-08-19T00:33:03;8.07;;;7.30;;
5876;SDS011;2964;42.144;24.730;2022-08-19T00:35:29;7.93;;;7.30;;
5876;SDS011;2964;42.144;24.730;2022-08-19T00:37:57;8.55;;;8.07;;
5876;SDS011;2964;42.144;24.730;2022-08-19T00:40:24;11.43;;;7.60;;
5876;SDS011;2964;42.144;24.730;2022-08-19T00:42:52;8.32;;;7.68;;
5876;SDS011;2964;42.144;24.730;2022-08-19T00:45:20;8.00;;;6.95;;
5876;SDS011;2964;42.144;24.730;2022-08-19T00:47:49;7.90;;;7.22;;
5876;SDS011;2964;42.144;24.730;2022-08-19T00:50:17;7.55;;;6.93;;
5876;SDS011;2964;42.144;24.730;2022-08-19T00:52:46;8.82;;;7.32;;
5876;SDS011;2964;42.144;24.730;2022-08-19T00:55:17;8.02;;;6.47;;
5876;SDS011;2964;42.144;24.730;2022-08-19T00:57:48;8.75;;;7.95;;
5876;SDS011;2964;42.144;24.730;2022-08-19T01:00:19;8.70;;;8.00;;
5876;SDS011;2964;42.144;24.730;2022-08-19T01:02:50;9.18;;;8.40;;
5876;SDS011;2964;42.144;24.730;2022-08-19T01:05:22;10.43;;;8.32;;
5876;SDS011;2964;42.144;24.730;2022-08-19T01:07:52;14.73;;;8.50;;
5876;SDS011;2964;42.144;24.730;2022-08-19T01:10:20;11.07;;;8.65;;
5876;SDS011;2964;42.144;24.730;2022-08-19T01:12:51;11.63;;;8.63;;
5876;SDS011;2964;42.144;24.730;2022-08-19T01:15:19;8.45;;;7.95;;
5876;SDS011;2964;42.144;24.730;2022-08-19T01:17:50;9.37;;;8.37;;
5876;SDS011;2964;42.144;24.730;2022-08-19T01:20:20;8.55;;;7.72;;
5876;SDS011;2964;42.144;24.730;2022-08-19T01:22:51;12.40;;;8.43;;
5876;SDS011;2964;42.144;24.730;2022-08-19T01:25:20;8.55;;;8.00;;
5876;SDS011;2964;42.144;24.730;2022-08-19T01:27:50;9.57;;;8.43;;
5876;SDS011;2964;42.144;24.730;2022-08-19T01:30:18;9.75;;;8.85;;
5876;SDS011;2964;42.144;24.730;2022-08-19T01:32:47;10.00;;;8.80;;
5876;SDS011;2964;42.144;24.730;2022-08-19T01:35:14;12.43;;;8.90;;
5876;SDS011;2964;42.144;24.730;2022-08-19T01:37:44;9.70;;;8.67;;
5876;SDS011;2964;42.144;24.730;2022-08-19T01:40:13;15.73;;;8.93;;
5876;SDS011;2964;42.144;24.730;2022-08-19T01:42:41;9.57;;;8.43;;
5876;SDS011;2964;42.144;24.730;2022-08-19T01:45:08;13.00;;;9.17;;
5876;SDS011;2964;42.144;24.730;2022-08-19T01:47:36;8.80;;;8.10;;
5876;SDS011;2964;42.144;24.730;2022-08-19T01:50:03;9.05;;;8.45;;
5876;SDS011;2964;42.144;24.730;2022-08-19T01:52:31;10.07;;;8.90;;
5876;SDS011;2964;42.144;24.730;2022-08-19T01:55:00;9.77;;;8.67;;
5876;SDS011;2964;42.144;24.730;2022-08-19T01:57:28;8.50;;;7.77;;
5876;SDS011;2964;42.144;24.730;2022-08-19T01:59:55;9.23;;;8.30;;
5876;SDS011;2964;42.144;24.730;2022-08-19T02:02:22;10.40;;;8.40;;
5876;SDS011;2964;42.144;24.730;2022-08-19T02:04:48;9.43;;;8.20;;
5876;SDS011;2964;42.144;24.730;2022-08-19T02:07:15;9.07;;;8.27;;
5876;SDS011;2964;42.144;24.730;2022-08-19T02:09:45;9.23;;;7.68;;
5876;SDS011;2964;42.144;24.730;2022-08-19T02:12:12;11.80;;;8.38;;
5876;SDS011;2964;42.144;24.730;2022-08-19T02:14:40;8.77;;;8.10;;
5876;SDS011;2964;42.144;24.730;2022-08-19T02:17:07;9.57;;;8.53;;
5876;SDS011;2964;42.144;24.730;2022-08-19T02:19:33;9.53;;;8.50;;
5876;SDS011;2964;42.144;24.730;2022-08-19T02:22:00;8.80;;;8.20;;
5876;SDS011;2964;42.144;24.730;2022-08-19T02:24:27;11.43;;;8.20;;
5876;SDS011;2964;42.144;24.730;2022-08-19T02:26:54;9.53;;;8.57;;
5876;SDS011;2964;42.144;24.730;2022-08-19T02:29:20;9.30;;;8.67;;
5876;SDS011;2964;42.144;24.730;2022-08-19T02:31:48;9.30;;;8.30;;
5876;SDS011;2964;42.144;24.730;2022-08-19T02:34:16;9.50;;;8.80;;
5876;SDS011;2964;42.144;24.730;2022-08-19T02:36:43;8.97;;;8.33;;
5876;SDS011;2964;42.144;24.730;2022-08-19T02:39:09;9.23;;;8.63;;
5876;SDS011;2964;42.144;24.730;2022-08-19T02:41:35;9.33;;;8.63;;
5876;SDS011;2964;42.144;24.730;2022-08-19T02:44:02;10.17;;;9.00;;
5876;SDS011;2964;42.144;24.730;2022-08-19T02:46:30;9.03;;;8.53;;
5876;SDS011;2964;42.144;24.730;2022-08-19T02:49:01;9.93;;;8.97;;
5876;SDS011;2964;42.144;24.730;2022-08-19T02:51:31;9.43;;;8.57;;
5876;SDS011;2964;42.144;24.730;2022-08-19T02:53:59;10.80;;;9.70;;
5876;SDS011;2964;42.144;24.730;2022-08-19T02:56:27;9.47;;;8.67;;
5876;SDS011;2964;42.144;24.730;2022-08-19T02:58:53;10.07;;;8.93;;
5876;SDS011;2964;42.144;24.730;2022-08-19T03:01:21;9.20;;;8.50;;
5876;SDS011;2964;42.144;24.730;2022-08-19T03:03:49;9.53;;;8.77;;
5876;SDS011;2964;42.144;24.730;2022-08-19T03:06:17;10.63;;;9.77;;
5876;SDS011;2964;42.144;24.730;2022-08-19T03:08:45;15.73;;;9.80;;
5876;SDS011;2964;42.144;24.730;2022-08-19T03:11:14;11.67;;;10.67;;
5876;SDS011;2964;42.144;24.730;2022-08-19T03:13:42;10.13;;;9.23;;
5876;SDS011;2964;42.144;24.730;2022-08-19T03:16:09;14.27;;;10.03;;
5876;SDS011;2964;42.144;24.730;2022-08-19T03:18:36;18.57;;;9.87;;
5876;SDS011;2964;42.144;24.730;2022-08-19T03:21:04;15.20;;;9.70;;
5876;SDS011;2964;42.144;24.730;2022-08-19T03:23:34;10.83;;;9.73;;
5876;SDS011;2964;42.144;24.730;2022-08-19T03:26:03;18.13;;;10.43;;
5876;SDS011;2964;42.144;24.730;2022-08-19T03:28:31;13.00;;;9.63;;
5876;SDS011;2964;42.144;24.730;2022-08-19T03:30:59;13.10;;;9.33;;
5876;SDS011;2964;42.144;24.730;2022-08-19T03:33:27;16.47;;;9.77;;
5876;SDS011;2964;42.144;24.730;2022-08-19T03:36:01;19.47;;;10.07;;
5876;SDS011;2964;42.144;24.730;2022-08-19T03:38:30;12.50;;;11.03;;
5876;SDS011;2964;42.144;24.730;2022-08-19T03:41:03;11.70;;;10.30;;
5876;SDS011;2964;42.144;24.730;2022-08-19T03:43:31;12.17;;;10.47;;
5876;SDS011;2964;42.144;24.730;2022-08-19T03:46:00;11.30;;;10.00;;
5876;SDS011;2964;42.144;24.730;2022-08-19T03:48:27;11.13;;;10.13;;
5876;SDS011;2964;42.144;24.730;2022-08-19T03:50:55;16.27;;;11.47;;
5876;SDS011;2964;42.144;24.730;2022-08-19T03:53:23;12.40;;;11.20;;
5876;SDS011;2964;42.144;24.730;2022-08-19T03:55:50;12.27;;;9.97;;
5876;SDS011;2964;42.144;24.730;2022-08-19T03:58:19;12.23;;;11.00;;
5876;SDS011;2964;42.144;24.730;2022-08-19T04:00:46;12.33;;;9.77;;
5876;SDS011;2964;42.144;24.730;2022-08-19T04:03:12;13.20;;;10.97;;
5876;SDS011;2964;42.144;24.730;2022-08-19T04:05:39;11.80;;;10.50;;
5876;SDS011;2964;42.144;24.730;2022-08-19T04:08:06;15.70;;;11.10;;
5876;SDS011;2964;42.144;24.730;2022-08-19T04:10:34;18.70;;;10.80;;
5876;SDS011;2964;42.144;24.730;2022-08-19T04:13:02;18.47;;;12.33;;
5876;SDS011;2964;42.144;24.730;2022-08-19T04:15:30;17.90;;;10.93;;
5876;SDS011;2964;42.144;24.730;2022-08-19T04:18:00;12.73;;;11.43;;
5876;SDS011;2964;42.144;24.730;2022-08-19T04:20:27;12.70;;;11.47;;
5876;SDS011;2964;42.144;24.730;2022-08-19T04:22:56;12.93;;;11.17;;
5876;SDS011;2964;42.144;24.730;2022-08-19T04:25:23;14.60;;;10.70;;
5876;SDS011;2964;42.144;24.730;2022-08-19T04:27:50;18.50;;;11.07;;
5876;SDS011;2964;42.144;24.730;2022-08-19T04:30:16;12.23;;;10.93;;
5876;SDS011;2964;42.144;24.730;2022-08-19T04:32:45;20.73;;;12.60;;
5876;SDS011;2964;42.144;24.730;2022-08-19T04:35:12;25.73;;;11.67;;
5876;SDS011;2964;42.144;24.730;2022-08-19T04:37:39;17.33;;;11.23;;
5876;SDS011;2964;42.144;24.730;2022-08-19T04:40:06;15.50;;;10.97;;
5876;SDS011;2964;42.144;24.730;2022-08-19T04:42:51;18.73;;;11.30;;
5876;SDS011;2964;42.144;24.730;2022-08-19T04:45:18;31.38;;;11.38;;
5876;SDS011;2964;42.144;24.730;2022-08-19T04:47:49;15.30;;;10.60;;
5876;SDS011;2964;42.144;24.730;2022-08-19T04:50:22;16.30;;;10.77;;
5876;SDS011;2964;42.144;24.730;2022-08-19T04:52:49;18.90;;;10.77;;
5876;SDS011;2964;42.144;24.730;2022-08-19T04:55:17;24.33;;;11.30;;
5876;SDS011;2964;42.144;24.730;2022-08-19T04:57:44;23.63;;;12.33;;
5876;SDS011;2964;42.144;24.730;2022-08-19T05:00:11;20.63;;;16.93;;
5876;SDS011;2964;42.144;24.730;2022-08-19T05:02:38;19.08;;;14.73;;
5876;SDS011;2964;42.144;24.730;2022-08-19T05:05:07;20.88;;;14.13;;
5876;SDS011;2964;42.144;24.730;2022-08-19T05:07:34;17.75;;;13.15;;
5876;SDS011;2964;42.144;24.730;2022-08-19T05:10:02;23.00;;;18.58;;
5876;SDS011;2964;42.144;24.730;2022-08-19T05:12:30;17.35;;;15.57;;
5876;SDS011;2964;42.144;24.730;2022-08-19T05:14:58;15.02;;;12.57;;
5876;SDS011;2964;42.144;24.730;2022-08-19T05:17:26;15.43;;;12.70;;
5876;SDS011;2964;42.144;24.730;2022-08-19T05:19:53;12.38;;;9.13;;
5876;SDS011;2964;42.144;24.730;2022-08-19T05:22:39;17.40;;;11.25;;
5876;SDS011;2964;42.144;24.730;2022-08-19T05:25:07;15.10;;;9.52;;
5876;SDS011;2964;42.144;24.730;2022-08-19T05:27:37;11.73;;;9.32;;
5876;SDS011;2964;42.144;24.730;2022-08-19T05:30:04;9.25;;;8.35;;
5876;SDS011;2964;42.144;24.730;2022-08-19T05:32:32;17.05;;;9.75;;
5876;SDS011;2964;42.144;24.730;2022-08-19T05:34:58;19.45;;;8.70;;
5876;SDS011;2964;42.144;24.730;2022-08-19T05:37:25;10.07;;;9.07;;
5876;SDS011;2964;42.144;24.730;2022-08-19T05:39:54;7.97;;;7.38;;
5876;SDS011;2964;42.144;24.730;2022-08-19T05:42:21;9.05;;;7.93;;
5876;SDS011;2964;42.144;24.730;2022-08-19T05:44:49;8.48;;;7.88;;
5876;SDS011;2964;42.144;24.730;2022-08-19T05:47:16;11.43;;;8.32;;
5876;SDS011;2964;42.144;24.730;2022-08-19T05:49:45;14.93;;;10.73;;
5876;SDS011;2964;42.144;24.730;2022-08-19T05:52:12;20.38;;;9.63;;
5876;SDS011;2964;42.144;24.730;2022-08-19T05:54:41;21.10;;;12.32;;
5876;SDS011;2964;42.144;24.730;2022-08-19T05:57:14;46.97;;;12.15;;
5876;SDS011;2964;42.144;24.730;2022-08-19T05:59:41;23.92;;;13.32;;
5876;SDS011;2964;42.144;24.730;2022-08-19T06:02:08;35.47;;;10.85;;
5876;SDS011;2964;42.144;24.730;2022-08-19T06:04:38;21.50;;;10.20;;
5876;SDS011;2964;42.144;24.730;2022-08-19T06:07:07;25.88;;;12.05;;
5876;SDS011;2964;42.144;24.730;2022-08-19T06:09:34;23.60;;;15.18;;
5876;SDS011;2964;42.144;24.730;2022-08-19T06:12:02;14.48;;;11.30;;
5876;SDS011;2964;42.144;24.730;2022-08-19T06:14:31;13.90;;;8.65;;
5876;SDS011;2964;42.144;24.730;2022-08-19T06:17:00;11.07;;;8.98;;
5876;SDS011;2964;42.144;24.730;2022-08-19T06:19:28;14.93;;;12.43;;
5876;SDS011;2964;42.144;24.730;2022-08-19T06:21:56;7.60;;;7.10;;
5876;SDS011;2964;42.144;24.730;2022-08-19T06:24:25;38.58;;;11.55;;
5876;SDS011;2964;42.144;24.730;2022-08-19T06:26:53;45.35;;;11.25;;
5876;SDS011;2964;42.144;24.730;2022-08-19T06:29:22;40.53;;;10.95;;
5876;SDS011;2964;42.144;24.730;2022-08-19T06:31:53;254.52;;;23.52;;
5876;SDS011;2964;42.144;24.730;2022-08-19T06:34:21;205.90;;;24.48;;
5876;SDS011;2964;42.144;24.730;2022-08-19T06:36:49;33.15;;;8.88;;
5876;SDS011;2964;42.144;24.730;2022-08-19T06:39:17;11.15;;;8.55;;
5876;SDS011;2964;42.144;24.730;2022-08-19T06:41:47;14.73;;;8.65;;
5876;SDS011;2964;42.144;24.730;2022-08-19T06:44:16;9.30;;;8.50;;
5876;SDS011;2964;42.144;24.730;2022-08-19T06:46:43;8.82;;;8.07;;
5876;SDS011;2964;42.144;24.730;2022-08-19T06:49:12;10.45;;;9.30;;
5876;SDS011;2964;42.144;24.730;2022-08-19T06:51:40;8.57;;;7.85;;
5876;SDS011;2964;42.144;24.730;2022-08-19T06:54:08;9.40;;;7.57;;
5876;SDS011;2964;42.144;24.730;2022-08-19T06:56:36;9.05;;;8.27;;
5876;SDS011;2964;42.144;24.730;2022-08-19T06:59:04;13.82;;;7.65;;
5876;SDS011;2964;42.144;24.730;2022-08-19T07:01:34;8.55;;;7.75;;
5876;SDS011;2964;42.144;24.730;2022-08-19T07:04:03;9.02;;;7.47;;
5876;SDS011;2964;42.144;24.730;2022-08-19T07:06:31;9.20;;;7.20;;
5876;SDS011;2964;42.144;24.730;2022-08-19T07:08:58;9.55;;;8.73;;
5876;SDS011;2964;42.144;24.730;2022-08-19T07:11:25;8.63;;;7.75;;
5876;SDS011;2964;42.144;24.730;2022-08-19T07:13:53;8.10;;;7.55;;
5876;SDS011;2964;42.144;24.730;2022-08-19T07:16:20;8.18;;;7.55;;
5876;SDS011;2964;42.144;24.730;2022-08-19T07:18:47;9.07;;;7.82;;
5876;SDS011;2964;42.144;24.730;2022-08-19T07:21:15;9.05;;;7.72;;
5876;SDS011;2964;42.144;24.730;2022-08-19T07:23:45;9.98;;;7.93;;
5876;SDS011;2964;42.144;24.730;2022-08-19T07:26:16;9.25;;;7.95;;
5876;SDS011;2964;42.144;24.730;2022-08-19T07:28:45;7.43;;;6.72;;
5876;SDS011;2964;42.144;24.730;2022-08-19T07:31:13;11.02;;;7.47;;
5876;SDS011;2964;42.144;24.730;2022-08-19T07:33:43;14.02;;;7.80;;
5876;SDS011;2964;42.144;24.730;2022-08-19T07:36:11;7.75;;;7.25;;
5876;SDS011;2964;42.144;24.730;2022-08-19T07:38:40;8.00;;;7.50;;
5876;SDS011;2964;42.144;24.730;2022-08-19T07:41:10;7.25;;;6.55;;
5876;SDS011;2964;42.144;24.730;2022-08-19T07:43:38;7.38;;;6.70;;
5876;SDS011;2964;42.144;24.730;2022-08-19T07:46:05;7.25;;;6.70;;
5876;SDS011;2964;42.144;24.730;2022-08-19T07:48:33;8.13;;;7.32;;
5876;SDS011;2964;42.144;24.730;2022-08-19T07:51:01;7.00;;;6.50;;
5876;SDS011;2964;42.144;24.730;2022-08-19T07:53:32;8.45;;;7.45;;
5876;SDS011;2964;42.144;24.730;2022-08-19T07:55:59;7.15;;;6.40;;
5876;SDS011;2964;42.144;24.730;2022-08-19T07:58:30;8.75;;;6.93;;
5876;SDS011;2964;42.144;24.730;2022-08-19T08:00:59;6.70;;;6.10;;
5876;SDS011;2964;42.144;24.730;2022-08-19T08:03:26;9.27;;;8.27;;
5876;SDS011;2964;42.144;24.730;2022-08-19T08:06:08;21.38;;;7.13;;
5876;SDS011;2964;42.144;24.730;2022-08-19T08:08:53;9.68;;;6.45;;
5876;SDS011;2964;42.144;24.730;2022-08-19T08:11:45;10.30;;;7.40;;
5876;SDS011;2964;42.144;24.730;2022-08-19T08:14:17;7.22;;;6.55;;
5876;SDS011;2964;42.144;24.730;2022-08-19T08:16:45;6.63;;;6.03;;
5876;SDS011;2964;42.144;24.730;2022-08-19T08:19:12;10.45;;;6.85;;
5876;SDS011;2964;42.144;24.730;2022-08-19T08:21:41;7.35;;;6.53;;
5876;SDS011;2964;42.144;24.730;2022-08-19T08:24:08;9.38;;;8.50;;
5876;SDS011;2964;42.144;24.730;2022-08-19T08:26:35;8.90;;;8.15;;
5876;SDS011;2964;42.144;24.730;2022-08-19T08:29:02;7.85;;;7.30;;
5876;SDS011;2964;42.144;24.730;2022-08-19T08:31:30;6.65;;;6.10;;
5876;SDS011;2964;42.144;24.730;2022-08-19T08:33:57;7.25;;;6.75;;
5876;SDS011;2964;42.144;24.730;2022-08-19T08:36:24;8.60;;;7.55;;
5876;SDS011;2964;42.144;24.730;2022-08-19T08:38:52;13.25;;;7.50;;
5876;SDS011;2964;42.144;24.730;2022-08-19T08:41:22;9.48;;;7.38;;
5876;SDS011;2964;42.144;24.730;2022-08-19T08:43:54;7.00;;;6.50;;
5876;SDS011;2964;42.144;24.730;2022-08-19T08:46:24;7.07;;;6.68;;
5876;SDS011;2964;42.144;24.730;2022-08-19T08:48:58;9.20;;;7.13;;
5876;SDS011;2964;42.144;24.730;2022-08-19T08:51:29;9.65;;;6.63;;
5876;SDS011;2964;42.144;24.730;2022-08-19T08:54:01;8.95;;;7.22;;
5876;SDS011;2964;42.144;24.730;2022-08-19T08:56:31;7.63;;;7.15;;
5876;SDS011;2964;42.144;24.730;2022-08-19T08:58:59;7.82;;;7.07;;
5876;SDS011;2964;42.144;24.730;2022-08-19T09:01:32;7.72;;;7.07;;
5876;SDS011;2964;42.144;24.730;2022-08-19T09:04:00;7.78;;;6.97;;
5876;SDS011;2964;42.144;24.730;2022-08-19T09:06:32;7.22;;;6.70;;
5876;SDS011;2964;42.144;24.730;2022-08-19T09:09:05;7.60;;;7.00;;
5876;SDS011;2964;42.144;24.730;2022-08-19T09:11:47;8.60;;;7.80;;
5876;SDS011;2964;42.144;24.730;2022-08-19T09:14:27;8.20;;;7.30;;
5876;SDS011;2964;42.144;24.730;2022-08-19T09:16:59;7.13;;;6.40;;
5876;SDS011;2964;42.144;24.730;2022-08-19T09:19:30;7.72;;;6.78;;
5876;SDS011;2964;42.144;24.730;2022-08-19T09:21:56;6.78;;;6.22;;
5876;SDS011;2964;42.144;24.730;2022-08-19T09:24:25;9.25;;;7.60;;
5876;SDS011;2964;42.144;24.730;2022-08-19T09:26:52;8.57;;;6.43;;
5876;SDS011;2964;42.144;24.730;2022-08-19T09:29:19;7.30;;;6.65;;
5876;SDS011;2964;42.144;24.730;2022-08-19T09:31:46;11.82;;;6.75;;
5876;SDS011;2964;42.144;24.730;2022-08-19T09:34:13;7.03;;;6.38;;
5876;SDS011;2964;42.144;24.730;2022-08-19T09:36:41;7.47;;;6.88;;
5876;SDS011;2964;42.144;24.730;2022-08-19T09:39:08;7.07;;;6.20;;
5876;SDS011;2964;42.144;24.730;2022-08-19T09:41:34;7.53;;;6.97;;
5876;SDS011;2964;42.144;24.730;2022-08-19T09:44:01;8.27;;;6.35;;
5876;SDS011;2964;42.144;24.730;2022-08-19T09:46:29;7.40;;;6.68;;
5876;SDS011;2964;42.144;24.730;2022-08-19T09:48:57;6.72;;;6.13;;
5876;SDS011;2964;42.144;24.730;2022-08-19T09:51:25;8.10;;;7.40;;
5876;SDS011;2964;42.144;24.730;2022-08-19T09:53:58;7.72;;;7.05;;
5876;SDS011;2964;42.144;24.730;2022-08-19T09:56:26;7.07;;;6.40;;
5876;SDS011;2964;42.144;24.730;2022-08-19T09:58:54;7.75;;;6.88;;
5876;SDS011;2964;42.144;24.730;2022-08-19T10:01:21;8.43;;;6.88;;
5876;SDS011;2964;42.144;24.730;2022-08-19T10:03:50;7.88;;;6.82;;
5876;SDS011;2964;42.144;24.730;2022-08-19T10:06:19;7.35;;;6.10;;
5876;SDS011;2964;42.144;24.730;2022-08-19T10:08:46;8.63;;;6.85;;
5876;SDS011;2964;42.144;24.730;2022-08-19T10:11:15;8.13;;;7.43;;
5876;SDS011;2964;42.144;24.730;2022-08-19T10:13:43;6.72;;;6.32;;
5876;SDS011;2964;42.144;24.730;2022-08-19T10:16:12;7.05;;;6.40;;
5876;SDS011;2964;42.144;24.730;2022-08-19T10:18:41;9.00;;;7.30;;
5876;SDS011;2964;42.144;24.730;2022-08-19T10:21:09;6.85;;;6.47;;
5876;SDS011;2964;42.144;24.730;2022-08-19T10:23:39;7.95;;;6.97;;
5876;SDS011;2964;42.144;24.730;2022-08-19T10:26:08;7.70;;;7.10;;
5876;SDS011;2964;42.144;24.730;2022-08-19T10:28:37;6.95;;;6.45;;
5876;SDS011;2964;42.144;24.730;2022-08-19T10:31:04;10.77;;;7.55;;
5876;SDS011;2964;42.144;24.730;2022-08-19T10:33:33;7.47;;;6.72;;
5876;SDS011;2964;42.144;24.730;2022-08-19T10:36:00;7.68;;;6.97;;
5876;SDS011;2964;42.144;24.730;2022-08-19T10:38:27;9.82;;;7.78;;
5876;SDS011;2964;42.144;24.730;2022-08-19T10:40:55;7.28;;;6.68;;
5876;SDS011;2964;42.144;24.730;2022-08-19T10:43:21;8.57;;;7.80;;
5876;SDS011;2964;42.144;24.730;2022-08-19T10:45:52;7.90;;;7.13;;
5876;SDS011;2964;42.144;24.730;2022-08-19T10:48:21;7.80;;;7.25;;
5876;SDS011;2964;42.144;24.730;2022-08-19T10:50:48;7.03;;;6.32;;
5876;SDS011;2964;42.144;24.730;2022-08-19T10:53:32;7.32;;;6.70;;
5876;SDS011;2964;42.144;24.730;2022-08-19T10:55:59;8.68;;;6.72;;
5876;SDS011;2964;42.144;24.730;2022-08-19T10:58:43;7.68;;;7.00;;
5876;SDS011;2964;42.144;24.730;2022-08-19T11:01:11;8.00;;;6.72;;
5876;SDS011;2964;42.144;24.730;2022-08-19T11:03:38;6.57;;;6.07;;
5876;SDS011;2964;42.144;24.730;2022-08-19T11:06:06;8.02;;;6.03;;
5876;SDS011;2964;42.144;24.730;2022-08-19T11:08:34;6.43;;;5.93;;
5876;SDS011;2964;42.144;24.730;2022-08-19T11:11:03;7.78;;;6.70;;
5876;SDS011;2964;42.144;24.730;2022-08-19T11:13:31;7.45;;;6.43;;
5876;SDS011;2964;42.144;24.730;2022-08-19T11:16:02;7.07;;;6.68;;
5876;SDS011;2964;42.144;24.730;2022-08-19T11:18:33;6.72;;;6.13;;
5876;SDS011;2964;42.144;24.730;2022-08-19T11:21:05;7.22;;;6.63;;
5876;SDS011;2964;42.144;24.730;2022-08-19T11:23:33;6.43;;;5.97;;
5876;SDS011;2964;42.144;24.730;2022-08-19T11:26:00;6.38;;;6.07;;
5876;SDS011;2964;42.144;24.730;2022-08-19T11:28:27;8.00;;;7.07;;
5876;SDS011;2964;42.144;24.730;2022-08-19T11:30:54;7.93;;;7.00;;
5876;SDS011;2964;42.144;24.730;2022-08-19T11:33:21;7.22;;;6.53;;
5876;SDS011;2964;42.144;24.730;2022-08-19T11:35:49;7.60;;;7.03;;
5876;SDS011;2964;42.144;24.730;2022-08-19T11:38:16;9.70;;;8.00;;
5876;SDS011;2964;42.144;24.730;2022-08-19T11:40:43;6.57;;;5.80;;
5876;SDS011;2964;42.144;24.730;2022-08-19T11:43:10;7.93;;;7.22;;
5876;SDS011;2964;42.144;24.730;2022-08-19T11:45:36;8.00;;;7.22;;
5876;SDS011;2964;42.144;24.730;2022-08-19T11:48:03;7.22;;;6.57;;
5876;SDS011;2964;42.144;24.730;2022-08-19T11:50:30;7.70;;;7.07;;
5876;SDS011;2964;42.144;24.730;2022-08-19T11:52:58;6.75;;;6.28;;
5876;SDS011;2964;42.144;24.730;2022-08-19T11:55:25;6.97;;;6.57;;
5876;SDS011;2964;42.144;24.730;2022-08-19T11:57:52;6.72;;;6.25;;
5876;SDS011;2964;42.144;24.730;2022-08-19T12:00:19;7.45;;;6.90;;
5876;SDS011;2964;42.144;24.730;2022-08-19T12:02:46;7.93;;;7.30;;
5876;SDS011;2964;42.144;24.730;2022-08-19T12:05:13;11.85;;;6.45;;
5876;SDS011;2964;42.144;24.730;2022-08-19T12:07:40;7.25;;;6.57;;
5876;SDS011;2964;42.144;24.730;2022-08-19T12:10:10;6.50;;;6.10;;
5876;SDS011;2964;42.144;24.730;2022-08-19T12:12:37;6.18;;;5.88;;
5876;SDS011;2964;42.144;24.730;2022-08-19T12:15:08;11.60;;;6.95;;
5876;SDS011;2964;42.144;24.730;2022-08-19T12:17:37;7.07;;;6.68;;
5876;SDS011;2964;42.144;24.730;2022-08-19T12:20:04;7.40;;;6.70;;
5876;SDS011;2964;42.144;24.730;2022-08-19T12:22:31;7.80;;;7.20;;
5876;SDS011;2964;42.144;24.730;2022-08-19T12:25:00;6.68;;;6.18;;
5876;SDS011;2964;42.144;24.730;2022-08-19T12:27:28;7.25;;;6.65;;
5876;SDS011;2964;42.144;24.730;2022-08-19T12:29:54;6.88;;;6.47;;
5876;SDS011;2964;42.144;24.730;2022-08-19T12:32:21;6.63;;;6.07;;
5876;SDS011;2964;42.144;24.730;2022-08-19T12:34:48;6.95;;;6.15;;
5876;SDS011;2964;42.144;24.730;2022-08-19T12:37:15;6.97;;;6.47;;
5876;SDS011;2964;42.144;24.730;2022-08-19T12:39:42;6.68;;;6.18;;
5876;SDS011;2964;42.144;24.730;2022-08-19T12:42:09;8.07;;;6.47;;
5876;SDS011;2964;42.144;24.730;2022-08-19T12:44:38;7.13;;;6.72;;
5876;SDS011;2964;42.144;24.730;2022-08-19T12:47:07;7.47;;;6.95;;
5876;SDS011;2964;42.144;24.730;2022-08-19T12:49:36;8.10;;;7.47;;
5876;SDS011;2964;42.144;24.730;2022-08-19T12:52:05;6.70;;;6.25;;
5876;SDS011;2964;42.144;24.730;2022-08-19T12:54:32;7.85;;;6.60;;
5876;SDS011;2964;42.144;24.730;2022-08-19T12:57:00;6.93;;;6.55;;
5876;SDS011;2964;42.144;24.730;2022-08-19T12:59:26;8.50;;;6.85;;
5876;SDS011;2964;42.144;24.730;2022-08-19T13:01:55;7.15;;;5.90;;
5876;SDS011;2964;42.144;24.730;2022-08-19T13:04:22;6.95;;;6.55;;
5876;SDS011;2964;42.144;24.730;2022-08-19T13:06:49;6.78;;;6.07;;
5876;SDS011;2964;42.144;24.730;2022-08-19T13:09:16;6.78;;;6.30;;
5876;SDS011;2964;42.144;24.730;2022-08-19T13:11:42;7.15;;;6.55;;
5876;SDS011;2964;42.144;24.730;2022-08-19T13:14:10;7.07;;;6.38;;
5876;SDS011;2964;42.144;24.730;2022-08-19T13:16:37;6.97;;;6.38;;
5876;SDS011;2964;42.144;24.730;2022-08-19T13:19:05;6.07;;;5.38;;
5876;SDS011;2964;42.144;24.730;2022-08-19T13:21:32;9.95;;;8.98;;
5876;SDS011;2964;42.144;24.730;2022-08-19T13:23:59;6.53;;;6.20;;
5876;SDS011;2964;42.144;24.730;2022-08-19T13:26:26;7.35;;;6.88;;
5876;SDS011;2964;42.144;24.730;2022-08-19T13:28:52;7.22;;;6.72;;
5876;SDS011;2964;42.144;24.730;2022-08-19T13:31:38;6.85;;;6.32;;
5876;SDS011;2964;42.144;24.730;2022-08-19T13:34:29;6.72;;;6.20;;
5876;SDS011;2964;42.144;24.730;2022-08-19T13:36:59;9.20;;;6.93;;
5876;SDS011;2964;42.144;24.730;2022-08-19T13:39:28;7.05;;;6.63;;
5876;SDS011;2964;42.144;24.730;2022-08-19T13:41:54;6.05;;;5.55;;
5876;SDS011;2964;42.144;24.730;2022-08-19T13:44:21;6.90;;;6.45;;
5876;SDS011;2964;42.144;24.730;2022-08-19T13:46:48;6.05;;;5.63;;
5876;SDS011;2964;42.144;24.730;2022-08-19T13:49:17;7.03;;;6.47;;
5876;SDS011;2964;42.144;24.730;2022-08-19T13:51:46;5.72;;;5.32;;
5876;SDS011;2964;42.144;24.730;2022-08-19T13:54:13;6.45;;;6.07;;
5876;SDS011;2964;42.144;24.730;2022-08-19T13:56:41;6.50;;;6.10;;
5876;SDS011;2964;42.144;24.730;2022-08-19T13:59:08;7.70;;;7.00;;
5876;SDS011;2964;42.144;24.730;2022-08-19T14:01:36;7.20;;;6.80;;
5876;SDS011;2964;42.144;24.730;2022-08-19T14:04:03;6.78;;;6.22;;
5876;SDS011;2964;42.144;24.730;2022-08-19T14:06:30;8.15;;;7.65;;
5876;SDS011;2964;42.144;24.730;2022-08-19T14:08:59;7.47;;;6.88;;
5876;SDS011;2964;42.144;24.730;2022-08-19T14:11:27;8.05;;;7.50;;
5876;SDS011;2964;42.144;24.730;2022-08-19T14:13:53;7.13;;;6.75;;
5876;SDS011;2964;42.144;24.730;2022-08-19T14:16:20;6.85;;;6.28;;
5876;SDS011;2964;42.144;24.730;2022-08-19T14:18:47;7.00;;;6.40;;
5876;SDS011;2964;42.144;24.730;2022-08-19T14:21:14;7.55;;;6.90;;
5876;SDS011;2964;42.144;24.730;2022-08-19T14:23:43;7.38;;;6.75;;
5876;SDS011;2964;42.144;24.730;2022-08-19T14:26:14;9.40;;;6.82;;
5876;SDS011;2964;42.144;24.730;2022-08-19T14:28:42;7.30;;;6.72;;
5876;SDS011;2964;42.144;24.730;2022-08-19T14:31:09;6.97;;;6.57;;
5876;SDS011;2964;42.144;24.730;2022-08-19T14:33:37;7.80;;;6.85;;
5876;SDS011;2964;42.144;24.730;2022-08-19T14:36:05;8.00;;;7.10;;
5876;SDS011;2964;42.144;24.730;2022-08-19T14:38:32;7.65;;;7.05;;
5876;SDS011;2964;42.144;24.730;2022-08-19T14:41:06;11.32;;;5.88;;
5876;SDS011;2964;42.144;24.730;2022-08-19T14:43:35;9.60;;;6.70;;
5876;SDS011;2964;42.144;24.730;2022-08-19T14:46:03;7.38;;;6.85;;
5876;SDS011;2964;42.144;24.730;2022-08-19T14:48:30;12.07;;;7.22;;
5876;SDS011;2964;42.144;24.730;2022-08-19T14:50:58;8.68;;;7.20;;
5876;SDS011;2964;42.144;24.730;2022-08-19T14:53:24;11.65;;;7.78;;
5876;SDS011;2964;42.144;24.730;2022-08-19T14:55:51;7.15;;;6.47;;
5876;SDS011;2964;42.144;24.730;2022-08-19T14:58:18;8.23;;;7.45;;
5876;SDS011;2964;42.144;24.730;2022-08-19T15:00:46;8.52;;;6.43;;
5876;SDS011;2964;42.144;24.730;2022-08-19T15:03:13;6.97;;;6.07;;